Time;durP1;ratioP1;P1;durP2;ratioP2;P2;SDS_P1;SDS_P2;PMS_P1;PMS_P2;Temp;Humidity;BMP_temperature;BMP_pressure;BME280_temperature;BME280_humidity;BME280_pressure;Samples;Min_cycle;Max_cycle;Signal;HPM_P1;HPM_P2
2023/03/08 00:01:00;;;;;;;5.20;1.80;;;0.10;99.90;;;;;;5093414;28;20400;-48
2023/03/08 00:03:26;;;;;;;5.53;1.65;;;0.40;99.90;;;;;;5093259;28;20059;-48
2023/03/08 00:05:52;;;;;;;6.00;1.50;;;0.10;99.90;;;;;;5093234;28;20044;-48
2023/03/08 00:08:18;;;;;;;5.75;1.70;;;0.40;99.90;;;;;;5093186;28;20523;-47
2023/03/08 00:10:44;;;;;;;6.22;1.67;;;-0.20;99.90;;;;;;5093561;28;20044;-49
2023/03/08 00:13:10;;;;;;;7.43;1.67;;;0.00;99.90;;;;;;5091714;28;20381;-50
2023/03/08 00:15:38;;;;;;;5.90;1.50;;;-0.20;99.90;;;;;;5092881;28;20048;-52
2023/03/08 00:18:05;;;;;;;7.25;2.47;;;0.10;99.90;;;;;;5092867;28;20421;-53
2023/03/08 00:20:31;;;;;;;6.15;1.60;;;0.10;99.90;;;;;;5092861;28;20071;-50
2023/03/08 00:22:57;;;;;;;6.68;2.03;;;-0.10;99.90;;;;;;5092861;28;20070;-51
2023/03/08 00:25:22;;;;;;;5.97;1.60;;;-0.30;99.90;;;;;;5091665;28;20484;-50
2023/03/08 00:27:48;;;;;;;5.32;1.65;;;0.20;99.90;;;;;;5092736;28;20047;-48
2023/03/08 00:30:14;;;;;;;5.78;1.60;;;-0.40;99.90;;;;;;5092543;28;20036;-48
2023/03/08 00:32:40;;;;;;;8.15;1.98;;;-0.30;99.90;;;;;;5092753;28;20119;-48
2023/03/08 00:35:06;;;;;;;4.70;1.90;;;0.20;99.90;;;;;;5092510;28;20139;-49
2023/03/08 00:37:32;;;;;;;5.57;1.67;;;0.10;99.90;;;;;;5092518;28;20032;-51
2023/03/08 00:39:58;;;;;;;4.60;1.60;;;0.20;99.90;;;;;;5092516;28;20040;-52
2023/03/08 00:42:24;;;;;;;3.53;1.27;;;-0.20;99.90;;;;;;5092314;28;20123;-51
2023/03/08 00:44:50;;;;;;;7.20;1.50;;;0.00;99.90;;;;;;5092558;28;20040;-49
2023/03/08 00:47:16;;;;;;;3.63;1.38;;;-0.40;99.90;;;;;;5092513;28;20043;-52
2023/03/08 00:49:43;;;;;;;5.78;2.05;;;-0.10;99.90;;;;;;5091133;28;20065;-52
2023/03/08 00:52:09;;;;;;;8.10;1.50;;;-0.20;99.90;;;;;;5090950;28;20523;-51
2023/03/08 00:54:35;;;;;;;4.50;1.52;;;-0.60;99.90;;;;;;5092138;28;20080;-49
2023/03/08 00:57:01;;;;;;;6.78;1.95;;;-0.10;99.90;;;;;;5091088;28;20083;-49
2023/03/08 00:59:26;;;;;;;4.20;1.42;;;-0.30;99.90;;;;;;5092522;28;20047;-50
2023/03/08 01:01:52;;;;;;;4.18;1.83;;;-0.40;99.90;;;;;;5092388;28;20039;-52
2023/03/08 01:04:18;;;;;;;3.92;1.15;;;-0.20;99.90;;;;;;5092137;28;20396;-52
2023/03/08 01:06:43;;;;;;;5.13;1.00;;;-0.20;99.90;;;;;;5092155;28;20043;-49
2023/03/08 01:09:10;;;;;;;2.95;1.00;;;-0.30;99.90;;;;;;5092201;28;20543;-52
2023/03/08 01:11:36;;;;;;;5.53;2.22;;;-0.20;99.90;;;;;;5091963;28;20111;-49
2023/03/08 01:14:04;;;;;;;5.63;1.20;;;-0.60;99.90;;;;;;5092031;28;20128;-48
2023/03/08 01:16:32;;;;;;;3.47;1.67;;;-0.70;99.90;;;;;;5091746;28;20474;-49
2023/03/08 01:18:58;;;;;;;4.25;1.08;;;-0.30;99.90;;;;;;5092167;28;20036;-49
2023/03/08 01:21:25;;;;;;;3.92;1.30;;;-0.40;99.90;;;;;;5091917;28;20476;-49
2023/03/08 01:23:51;;;;;;;4.15;1.08;;;-0.50;99.90;;;;;;5091967;28;20040;-48
2023/03/08 01:26:20;;;;;;;3.42;0.98;;;-0.30;99.90;;;;;;5091763;28;20043;-48
2023/03/08 01:28:46;;;;;;;3.88;1.20;;;-0.50;99.90;;;;;;5092168;28;20051;-48
2023/03/08 01:31:16;;;;;;;3.58;1.02;;;-0.70;99.90;;;;;;5091809;28;20047;-48
2023/03/08 01:33:43;;;;;;;4.25;1.00;;;-0.60;99.90;;;;;;5091967;28;20044;-48
2023/03/08 01:36:11;;;;;;;3.00;0.88;;;-0.60;99.90;;;;;;5091951;28;20036;-51
2023/03/08 01:38:37;;;;;;;3.90;1.30;;;-0.40;99.90;;;;;;5091868;28;20036;-49
2023/03/08 01:41:07;;;;;;;4.25;1.08;;;-0.40;99.90;;;;;;5091576;28;20072;-50
2023/03/08 01:43:37;;;;;;;4.82;1.08;;;-0.60;99.90;;;;;;5091976;28;20401;-49
2023/03/08 01:46:24;;;;;;;5.57;1.17;;;-0.60;99.90;;;;;;5091582;28;20044;-51
2023/03/08 01:49:10;;;;;;;4.68;1.10;;;-0.30;99.90;;;;;;5090686;28;20095;-51
2023/03/08 01:51:59;;;;;;;2.22;1.00;;;-0.40;99.90;;;;;;5091052;28;20040;-49
2023/03/08 01:54:30;;;;;;;3.70;1.10;;;-0.50;99.90;;;;;;5091709;28;20454;-49
2023/03/08 01:57:02;;;;;;;2.45;0.80;;;-0.30;99.90;;;;;;5091588;28;20107;-51
2023/03/08 01:59:30;;;;;;;3.60;0.85;;;-0.70;99.90;;;;;;5091715;28;20036;-49
2023/03/08 02:01:56;;;;;;;3.38;1.15;;;-0.60;99.90;;;;;;5091720;28;20047;-49
2023/03/08 02:04:22;;;;;;;3.75;0.80;;;-0.60;99.90;;;;;;5090590;28;20048;-52
2023/03/08 02:06:48;;;;;;;2.22;1.02;;;-0.40;99.90;;;;;;5090279;28;20127;-51
2023/03/08 02:09:14;;;;;;;3.47;1.05;;;-0.70;99.90;;;;;;5091677;28;20067;-48
2023/03/08 02:11:41;;;;;;;1.95;0.60;;;-0.30;99.90;;;;;;5091565;28;20036;-49
2023/03/08 02:14:06;;;;;;;2.35;0.60;;;-0.20;99.90;;;;;;5091446;28;20373;-48
2023/03/08 02:16:32;;;;;;;1.73;0.63;;;-0.20;99.90;;;;;;5091679;28;20106;-48
2023/03/08 02:19:05;;;;;;;4.75;1.00;;;-0.50;99.90;;;;;;5090220;28;20063;-52
2023/03/08 02:21:31;;;;;;;1.73;0.50;;;-0.30;99.90;;;;;;5091296;28;20480;-47
2023/03/08 02:24:25;;;;;;;3.33;0.70;;;-0.40;99.90;;;;;;5090090;28;20046;-49
2023/03/08 02:27:00;;;;;;;2.55;1.10;;;-0.60;99.90;;;;;;5091541;28;20065;-49
2023/03/08 02:29:26;;;;;;;3.22;1.98;;;-0.70;99.90;;;;;;5095010;28;20495;-49
2023/03/08 02:31:51;;;;;;;2.72;0.80;;;-0.60;99.90;;;;;;5093528;28;20050;-48
2023/03/08 02:34:17;;;;;;;3.60;0.65;;;-0.10;99.90;;;;;;5094979;28;20068;-48
2023/03/08 02:36:42;;;;;;;2.42;0.80;;;-0.20;99.90;;;;;;5094808;28;20036;-49
2023/03/08 02:39:08;;;;;;;2.33;0.60;;;-0.20;99.90;;;;;;5094821;28;20036;-50
2023/03/08 02:41:34;;;;;;;6.13;0.95;;;-0.20;99.90;;;;;;5094907;28;20078;-48
2023/03/08 02:43:59;;;;;;;3.15;1.02;;;-0.50;99.90;;;;;;5094786;28;20369;-48
2023/03/08 02:46:25;;;;;;;1.55;0.65;;;-0.30;99.90;;;;;;5094531;28;20048;-49
2023/03/08 02:48:51;;;;;;;2.58;0.90;;;-0.60;99.90;;;;;;5094796;28;20038;-48
2023/03/08 02:51:17;;;;;;;1.95;0.70;;;-0.40;99.90;;;;;;5094314;28;20131;-49
2023/03/08 02:53:43;;;;;;;1.92;0.68;;;-0.20;99.90;;;;;;5094471;28;20123;-51
2023/03/08 02:56:08;;;;;;;3.25;0.77;;;-0.70;99.90;;;;;;5093187;28;20518;-52
2023/03/08 02:58:34;;;;;;;2.38;0.70;;;-0.70;99.90;;;;;;5094579;28;20452;-52
2023/03/08 03:01:00;;;;;;;2.22;0.75;;;-0.30;99.90;;;;;;5094320;28;20078;-49
2023/03/08 03:03:25;;;;;;;2.88;1.23;;;-0.80;99.90;;;;;;5094227;28;20168;-50
2023/03/08 03:05:51;;;;;;;4.40;0.75;;;-0.30;99.90;;;;;;5094397;28;20044;-50
2023/03/08 03:08:17;;;;;;;2.28;0.65;;;-0.30;99.90;;;;;;5094133;28;20431;-50
2023/03/08 03:10:43;;;;;;;2.00;0.70;;;-0.30;99.90;;;;;;5094430;28;20051;-49
2023/03/08 03:13:08;;;;;;;2.50;0.80;;;-0.40;99.90;;;;;;5094202;28;20043;-48
2023/03/08 03:15:38;;;;;;;2.13;0.70;;;-0.80;99.90;;;;;;5094170;28;20085;-49
2023/03/08 03:18:04;;;;;;;5.75;1.50;;;-0.50;99.90;;;;;;5093965;28;20541;-53
2023/03/08 03:20:31;;;;;;;5.28;1.15;;;-0.80;99.90;;;;;;5092950;28;20118;-49
2023/03/08 03:22:58;;;;;;;3.05;0.63;;;-0.50;99.90;;;;;;5093843;28;20047;-52
2023/03/08 03:25:23;;;;;;;1.88;0.70;;;-0.40;99.90;;;;;;5094120;28;20403;-50
2023/03/08 03:27:49;;;;;;;5.07;0.90;;;-0.90;99.90;;;;;;5093849;28;20046;-49
2023/03/08 03:30:15;;;;;;;3.70;0.80;;;-1.00;99.90;;;;;;5093897;28;20483;-49
2023/03/08 03:32:40;;;;;;;3.17;0.70;;;-0.90;99.90;;;;;;5093680;28;20439;-50
2023/03/08 03:35:06;;;;;;;3.05;0.90;;;-1.00;99.90;;;;;;5093502;28;20419;-50
2023/03/08 03:37:34;;;;;;;4.97;0.90;;;-0.90;99.90;;;;;;5093575;28;20074;-51
2023/03/08 03:40:00;;;;;;;2.53;1.08;;;-0.90;99.90;;;;;;5093469;28;20032;-50
2023/03/08 03:42:25;;;;;;;2.80;0.80;;;-0.70;99.90;;;;;;5093423;28;20044;-49
2023/03/08 03:44:51;;;;;;;3.83;0.90;;;-0.60;99.90;;;;;;5093700;28;20043;-50
2023/03/08 03:47:17;;;;;;;3.70;0.90;;;-0.70;99.90;;;;;;5093458;28;20032;-48
2023/03/08 03:49:42;;;;;;;2.58;0.90;;;-0.70;99.90;;;;;;5093413;28;20124;-50
2023/03/08 03:52:08;;;;;;;2.88;0.80;;;-1.10;99.90;;;;;;5092914;28;20059;-49
2023/03/08 03:54:34;;;;;;;2.92;0.73;;;-0.60;99.90;;;;;;5093239;28;20192;-50
2023/03/08 03:56:59;;;;;;;3.55;0.95;;;-0.90;99.90;;;;;;5093461;28;20044;-49
2023/03/08 03:59:25;;;;;;;3.03;0.80;;;-1.10;99.90;;;;;;5093109;28;20079;-52
2023/03/08 04:01:51;;;;;;;0.95;0.50;;;-1.00;99.90;;;;;;5093368;28;20086;-49
2023/03/08 04:04:17;;;;;;;3.95;1.00;;;-0.60;99.90;;;;;;5092893;28;20036;-49
2023/03/08 04:06:42;;;;;;;3.10;0.90;;;-1.10;99.90;;;;;;5093104;28;20106;-51
2023/03/08 04:09:13;;;;;;;2.75;0.90;;;-1.10;99.90;;;;;;5091597;28;20400;-49
2023/03/08 04:11:39;;;;;;;2.83;0.75;;;-0.90;99.90;;;;;;5093148;28;20174;-49
2023/03/08 04:14:06;;;;;;;3.95;0.85;;;-1.20;99.90;;;;;;5092805;28;20449;-53
2023/03/08 04:16:34;;;;;;;3.13;0.70;;;-0.90;99.90;;;;;;5092878;28;20063;-50
2023/03/08 04:19:02;;;;;;;2.13;0.70;;;-1.10;99.90;;;;;;5092804;28;20044;-50
2023/03/08 04:21:28;;;;;;;2.97;0.80;;;-0.70;99.90;;;;;;5092818;28;20032;-52
2023/03/08 04:23:55;;;;;;;3.58;0.82;;;-0.60;99.90;;;;;;5091409;28;20054;-49
2023/03/08 04:26:20;;;;;;;1.35;0.73;;;-1.10;99.90;;;;;;5092749;28;20044;-48
2023/03/08 04:28:46;;;;;;;5.22;0.88;;;-1.00;99.90;;;;;;5092769;28;20044;-49
2023/03/08 04:31:17;;;;;;;4.57;0.82;;;-0.90;99.90;;;;;;5092608;28;20519;-51
2023/03/08 04:33:44;;;;;;;3.58;0.80;;;-1.00;99.90;;;;;;5092437;28;20048;-50
2023/03/08 04:36:10;;;;;;;6.53;0.82;;;-1.20;99.90;;;;;;5091265;28;20050;-51
2023/03/08 04:38:36;;;;;;;3.65;0.80;;;-1.20;99.90;;;;;;5092680;28;20109;-49
2023/03/08 04:41:09;;;;;;;3.78;0.80;;;-0.60;99.90;;;;;;5092429;28;20040;-49
2023/03/08 04:43:35;;;;;;;3.40;0.70;;;-0.60;99.90;;;;;;5092332;28;20039;-49
2023/03/08 04:46:03;;;;;;;1.95;0.80;;;-0.60;99.90;;;;;;5092496;28;20044;-49
2023/03/08 04:48:29;;;;;;;3.92;1.00;;;-0.80;99.90;;;;;;5091122;28;20082;-52
2023/03/08 04:50:57;;;;;;;3.63;0.95;;;-0.70;99.90;;;;;;5091650;28;20067;-50
2023/03/08 04:53:24;;;;;;;3.75;1.00;;;-0.70;99.90;;;;;;5092089;28;20048;-50
2023/03/08 04:55:50;;;;;;;2.55;0.85;;;-0.80;99.90;;;;;;5090936;28;20052;-52
2023/03/08 04:58:17;;;;;;;2.65;0.80;;;-0.70;99.90;;;;;;5092297;28;20052;-49
2023/03/08 05:00:42;;;;;;;2.30;0.90;;;-0.70;99.90;;;;;;5092303;28;20039;-51
2023/03/08 05:03:09;;;;;;;4.68;1.10;;;-1.30;99.90;;;;;;5092080;28;20404;-48
2023/03/08 05:05:35;;;;;;;1.40;0.70;;;-1.20;99.90;;;;;;5091322;28;20400;-50
2023/03/08 05:08:04;;;;;;;3.25;1.00;;;-0.70;99.90;;;;;;5092064;28;20052;-48
2023/03/08 05:10:30;;;;;;;5.00;1.10;;;-0.80;99.90;;;;;;5090999;28;20059;-49
2023/03/08 05:12:57;;;;;;;6.88;1.70;;;-0.60;99.90;;;;;;5091959;28;20064;-48
2023/03/08 05:15:23;;;;;;;2.28;1.08;;;-1.10;99.90;;;;;;5091961;28;20488;-48
2023/03/08 05:17:49;;;;;;;4.03;1.00;;;-1.10;99.90;;;;;;5092274;28;20032;-47
2023/03/08 05:20:15;;;;;;;3.55;0.93;;;-0.60;99.90;;;;;;5091692;28;20040;-47
2023/03/08 05:22:41;;;;;;;2.55;0.80;;;-1.10;99.90;;;;;;5091950;28;20119;-48
2023/03/08 05:25:07;;;;;;;4.05;0.95;;;-1.20;99.90;;;;;;5091954;28;20547;-48
2023/03/08 05:27:33;;;;;;;4.97;0.90;;;-0.60;99.90;;;;;;5091991;28;20043;-47
2023/03/08 05:29:59;;;;;;;2.72;1.10;;;-1.10;99.90;;;;;;5091643;28;20508;-47
2023/03/08 05:32:25;;;;;;;2.30;0.93;;;-0.80;99.90;;;;;;5091842;28;20059;-47
2023/03/08 05:34:53;;;;;;;3.05;0.90;;;-0.90;99.90;;;;;;5091876;28;20109;-49
2023/03/08 05:37:19;;;;;;;1.75;0.90;;;-0.70;99.90;;;;;;5091910;28;20039;-48
2023/03/08 05:39:46;;;;;;;6.13;0.98;;;-0.60;99.90;;;;;;5091706;28;20492;-47
2023/03/08 05:42:12;;;;;;;4.90;1.05;;;-1.00;99.90;;;;;;5091503;28;20364;-50
2023/03/08 05:44:38;;;;;;;3.10;0.98;;;-1.20;99.90;;;;;;5091682;28;20115;-47
2023/03/08 05:47:04;;;;;;;3.80;1.15;;;-0.60;99.90;;;;;;5091949;28;20032;-47
2023/03/08 05:49:29;;;;;;;4.75;1.02;;;-0.60;99.90;;;;;;5091333;28;20123;-47
2023/03/08 05:51:55;;;;;;;3.83;0.90;;;-1.00;99.90;;;;;;5091673;28;20449;-51
2023/03/08 05:54:21;;;;;;;4.28;1.15;;;-0.60;99.90;;;;;;5091884;28;20127;-47
2023/03/08 05:56:47;;;;;;;5.43;1.10;;;-0.50;99.90;;;;;;5091704;28;20400;-49
2023/03/08 05:59:13;;;;;;;1.90;0.73;;;-1.10;99.90;;;;;;5090320;28;20048;-51
2023/03/08 06:01:39;;;;;;;2.97;0.82;;;-0.50;99.90;;;;;;5092768;28;20040;-49
2023/03/08 06:04:05;;;;;;;4.15;1.02;;;-0.50;99.90;;;;;;5095574;28;20031;-50
2023/03/08 06:06:30;;;;;;;2.55;0.90;;;-0.60;99.90;;;;;;5095387;28;20059;-48
2023/03/08 06:08:57;;;;;;;2.95;0.88;;;-0.50;99.90;;;;;;5095397;28;20503;-49
2023/03/08 06:11:23;;;;;;;2.60;0.90;;;-0.50;99.90;;;;;;5095306;28;20040;-49
2023/03/08 06:13:48;;;;;;;4.05;1.08;;;-0.60;99.90;;;;;;5094013;28;20130;-50
2023/03/08 06:16:14;;;;;;;4.72;1.17;;;-0.90;99.90;;;;;;5095267;28;20110;-49
2023/03/08 06:18:41;;;;;;;5.93;1.27;;;-0.50;99.90;;;;;;5094197;28;20483;-48
2023/03/08 06:21:16;;;;;;;5.57;0.98;;;-0.80;99.90;;;;;;5093640;28;20115;-50
2023/03/08 06:23:42;;;;;;;4.03;1.17;;;-0.50;99.90;;;;;;5095194;28;20071;-51
2023/03/08 06:26:09;;;;;;;7.45;1.48;;;-0.50;99.90;;;;;;5094790;28;20047;-48
2023/03/08 06:28:36;;;;;;;3.58;1.10;;;-1.00;99.90;;;;;;5095279;28;20046;-51
2023/03/08 06:31:02;;;;;;;2.92;1.08;;;-0.60;99.90;;;;;;5094961;28;20036;-48
2023/03/08 06:33:30;;;;;;;6.63;1.25;;;-0.90;99.90;;;;;;5094867;28;20044;-52
2023/03/08 06:36:00;;;;;;;2.00;0.85;;;-0.50;99.90;;;;;;5076610;28;20048;-49
2023/03/08 06:38:28;;;;;;;7.10;1.10;;;-0.90;99.90;;;;;;5094860;28;20036;-48
2023/03/08 06:40:53;;;;;;;5.95;1.77;;;-0.90;99.90;;;;;;5094584;28;20051;-51
2023/03/08 06:43:19;;;;;;;2.30;0.90;;;-0.40;99.90;;;;;;5093472;28;20048;-48
2023/03/08 06:45:45;;;;;;;4.72;1.33;;;-0.80;99.90;;;;;;5094759;28;20055;-48
2023/03/08 06:48:11;;;;;;;4.00;1.10;;;-0.70;99.90;;;;;;5094626;28;20036;-49
2023/03/08 06:50:37;;;;;;;4.05;1.30;;;-0.60;99.90;;;;;;5094572;28;20094;-49
2023/03/08 06:53:02;;;;;;;4.30;1.23;;;-0.40;99.90;;;;;;5094488;28;20036;-49
2023/03/08 06:55:28;;;;;;;5.85;1.50;;;-0.90;99.90;;;;;;5083814;28;20496;-50
2023/03/08 06:57:56;;;;;;;6.43;1.40;;;-0.80;99.90;;;;;;5074836;28;20037;-47
2023/03/08 07:00:22;;;;;;;4.53;1.30;;;-0.40;99.90;;;;;;5072642;28;20316;-47
2023/03/08 07:02:48;;;;;;;8.80;1.40;;;-0.20;99.90;;;;;;5072713;28;20120;-47
2023/03/08 07:05:17;;;;;;;3.63;1.05;;;-0.40;99.90;;;;;;5071345;28;20044;-52
2023/03/08 07:07:43;;;;;;;6.47;2.10;;;-0.40;99.90;;;;;;5072539;28;20055;-48
2023/03/08 07:10:13;;;;;;;4.35;1.33;;;-0.40;99.90;;;;;;5072287;28;20044;-51
2023/03/08 07:12:42;;;;;;;4.40;1.02;;;-0.60;99.90;;;;;;5074347;28;20044;-47
2023/03/08 07:15:13;;;;;;;3.33;1.15;;;-0.40;99.90;;;;;;5082303;28;20051;-48
2023/03/08 07:17:40;;;;;;;4.72;1.50;;;-0.20;99.90;;;;;;5081579;28;20027;-49
2023/03/08 07:20:07;;;;;;;5.80;1.63;;;0.00;99.90;;;;;;5081066;28;20032;-52
2023/03/08 07:22:32;;;;;;;4.57;1.38;;;0.00;99.90;;;;;;5080780;28;20090;-52
2023/03/08 07:24:58;;;;;;;7.75;1.30;;;-0.20;99.90;;;;;;5082447;28;20437;-52
2023/03/08 07:27:24;;;;;;;4.82;1.65;;;-0.30;99.90;;;;;;5082206;28;20047;-49
2023/03/08 07:29:50;;;;;;;3.60;1.40;;;-0.30;99.90;;;;;;5076324;28;20064;-48
2023/03/08 07:32:16;;;;;;;4.97;1.20;;;0.10;99.90;;;;;;5090538;28;20079;-51
2023/03/08 07:34:42;;;;;;;5.20;1.20;;;0.10;99.90;;;;;;5092042;28;20036;-51
2023/03/08 07:37:14;;;;;;;5.40;1.55;;;0.00;99.90;;;;;;5091852;28;20040;-48
2023/03/08 07:39:41;;;;;;;4.38;1.48;;;0.00;99.90;;;;;;5092101;28;20051;-52
2023/03/08 07:42:09;;;;;;;6.20;1.60;;;-0.50;99.90;;;;;;5090220;28;20288;-51
2023/03/08 07:44:36;;;;;;;4.97;1.20;;;-0.50;99.90;;;;;;5091759;28;20055;-47
2023/03/08 07:47:03;;;;;;;4.32;1.60;;;-0.20;99.90;;;;;;5091780;28;20412;-46
2023/03/08 07:49:29;;;;;;;6.57;1.65;;;-0.30;99.90;;;;;;5082397;28;20050;-49
2023/03/08 07:51:55;;;;;;;4.78;1.40;;;0.20;99.90;;;;;;5083021;28;20041;-48
2023/03/08 07:54:20;;;;;;;6.55;1.75;;;0.10;99.90;;;;;;5079667;28;20284;-52
2023/03/08 07:56:46;;;;;;;5.57;1.80;;;0.30;99.90;;;;;;5080183;28;20047;-51
2023/03/08 07:59:12;;;;;;;5.13;2.08;;;0.20;99.90;;;;;;5082133;28;20039;-48
2023/03/08 08:01:38;;;;;;;4.65;2.03;;;0.00;99.90;;;;;;5079909;28;20029;-50
2023/03/08 08:04:03;;;;;;;6.43;1.80;;;0.30;99.90;;;;;;5091537;28;20051;-51
2023/03/08 08:06:29;;;;;;;3.95;1.65;;;-0.20;99.90;;;;;;5091571;28;20047;-50
2023/03/08 08:08:56;;;;;;;4.93;1.90;;;0.20;99.90;;;;;;5090455;28;20047;-49
2023/03/08 08:11:22;;;;;;;5.70;1.75;;;0.40;99.90;;;;;;5091426;28;20434;-47
2023/03/08 08:13:48;;;;;;;4.22;1.77;;;0.10;99.90;;;;;;5089983;28;20075;-48
2023/03/08 08:16:15;;;;;;;5.95;2.10;;;0.60;99.90;;;;;;5091383;28;20048;-50
2023/03/08 08:18:41;;;;;;;5.72;1.77;;;0.30;99.90;;;;;;5091281;28;20070;-48
2023/03/08 08:21:13;;;;;;;5.35;2.42;;;0.60;99.90;;;;;;5091573;28;20087;-47
2023/03/08 08:23:40;;;;;;;8.95;2.83;;;0.20;99.90;;;;;;5091216;28;20278;-48
2023/03/08 08:26:14;;;;;;;6.22;1.98;;;0.50;99.90;;;;;;5091190;28;20044;-47
2023/03/08 08:28:41;;;;;;;5.65;2.10;;;0.30;99.90;;;;;;5091157;28;20444;-49
2023/03/08 08:31:13;;;;;;;4.95;2.08;;;0.70;99.90;;;;;;5090928;28;20692;-48
2023/03/08 08:33:39;;;;;;;6.38;2.15;;;0.90;99.90;;;;;;5071637;28;20556;-49
2023/03/08 08:36:07;;;;;;;6.22;2.60;;;0.90;99.90;;;;;;5080870;28;20123;-50
2023/03/08 08:38:36;;;;;;;7.35;2.40;;;0.90;99.90;;;;;;5079197;28;20083;-48
2023/03/08 08:41:04;;;;;;;8.55;3.03;;;0.90;99.90;;;;;;5070670;28;20067;-49
2023/03/08 08:43:30;;;;;;;5.78;2.47;;;0.70;99.90;;;;;;5070232;28;20040;-51
2023/03/08 08:45:58;;;;;;;5.63;2.65;;;0.90;99.90;;;;;;5070801;28;20043;-52
2023/03/08 08:48:24;;;;;;;7.25;2.80;;;0.60;99.90;;;;;;5070307;28;20124;-52
2023/03/08 08:50:51;;;;;;;9.40;2.60;;;0.90;99.90;;;;;;5085272;28;20040;-51
2023/03/08 08:53:17;;;;;;;5.65;2.72;;;1.20;99.90;;;;;;5090607;28;20043;-50
2023/03/08 08:55:44;;;;;;;10.07;2.78;;;1.30;99.90;;;;;;5090283;28;20105;-48
2023/03/08 08:58:10;;;;;;;6.70;2.72;;;1.30;99.90;;;;;;5089776;28;20040;-48
2023/03/08 09:00:36;;;;;;;6.65;3.08;;;1.50;99.90;;;;;;5079060;28;20624;-52
2023/03/08 09:03:04;;;;;;;7.03;3.15;;;1.70;99.90;;;;;;5079864;28;20039;-51
2023/03/08 09:05:31;;;;;;;7.90;3.10;;;1.70;99.90;;;;;;5082521;28;20066;-49
2023/03/08 09:07:58;;;;;;;6.93;2.92;;;1.80;99.90;;;;;;5080876;28;20044;-49
2023/03/08 09:10:29;;;;;;;10.40;3.92;;;1.50;99.90;;;;;;5079142;28;20040;-49
2023/03/08 09:12:57;;;;;;;8.15;3.30;;;1.80;99.90;;;;;;5078690;28;20388;-49
2023/03/08 09:15:23;;;;;;;8.30;3.47;;;1.80;99.90;;;;;;5078891;28;20534;-51
2023/03/08 09:17:49;;;;;;;8.32;3.47;;;1.50;99.90;;;;;;5077199;28;20070;-52
2023/03/08 09:20:15;;;;;;;7.35;3.40;;;1.90;99.90;;;;;;5076639;28;20024;-49
2023/03/08 09:22:41;;;;;;;15.70;4.65;;;1.80;99.90;;;;;;5088652;28;20120;-49
2023/03/08 09:25:08;;;;;;;7.43;3.65;;;1.80;99.90;;;;;;5090508;28;20032;-50
2023/03/08 09:27:34;;;;;;;6.57;3.60;;;1.50;99.90;;;;;;5090550;28;20044;-47
2023/03/08 09:29:59;;;;;;;7.07;4.20;;;1.70;99.90;;;;;;5090570;28;20515;-50
2023/03/08 09:32:26;;;;;;;7.80;3.80;;;2.00;99.90;;;;;;5090547;28;20438;-49
2023/03/08 09:34:53;;;;;;;9.75;3.90;;;2.00;99.90;;;;;;5090524;28;20077;-51
2023/03/08 09:37:19;;;;;;;7.90;3.10;;;1.70;99.90;;;;;;5093905;28;20043;-48
2023/03/08 09:39:45;;;;;;;8.50;3.58;;;2.00;99.90;;;;;;5089867;28;20055;-48
2023/03/08 09:42:26;;;;;;;9.40;3.60;;;1.90;99.90;;;;;;5074995;28;20025;-49
2023/03/08 09:45:24;;;;;;;6.72;3.30;;;2.00;99.90;;;;;;5075385;28;20032;-49
2023/03/08 09:48:16;;;;;;;7.75;3.45;;;2.00;99.90;;;;;;5075240;28;20048;-47
2023/03/08 09:50:50;;;;;;;7.40;3.38;;;2.10;99.90;;;;;;5090099;28;20074;-49
2023/03/08 09:53:27;;;;;;;9.23;3.30;;;2.30;99.90;;;;;;5075219;28;20344;-47
2023/03/08 09:56:16;;;;;;;8.43;3.80;;;2.20;99.90;;;;;;5073832;28;20052;-47
2023/03/08 09:58:50;;;;;;;6.60;3.35;;;2.50;99.90;;;;;;5055211;28;20412;-48
2023/03/08 10:01:34;;;;;;;5.68;2.78;;;2.30;99.90;;;;;;5078326;28;20048;-49
2023/03/08 10:04:57;;;;;;;7.18;3.13;;;2.70;99.90;;;;;;5083850;28;20040;-48
2023/03/08 10:07:30;;;;;;;5.60;2.50;;;2.40;99.90;;;;;;5042305;28;20176;-52
2023/03/08 10:10:26;;;;;;;8.90;3.17;;;2.80;99.90;;;;;;5042019;28;20120;-49
2023/03/08 10:13:20;;;;;;;6.97;2.78;;;2.60;99.90;;;;;;5072050;28;20311;-50
2023/03/08 10:15:50;;;;;;;8.95;2.97;;;2.50;99.90;;;;;;5085948;28;20469;-53
2023/03/08 10:18:19;;;;;;;6.07;3.03;;;2.60;99.90;;;;;;5080153;28;20032;-53
2023/03/08 10:20:46;;;;;;;6.03;2.72;;;3.00;99.90;;;;;;5075713;28;20028;-51
2023/03/08 10:23:21;;;;;;;7.60;2.80;;;3.20;99.90;;;;;;5087989;28;20040;-52
2023/03/08 10:25:48;;;;;;;5.90;2.83;;;2.80;99.90;;;;;;5083445;28;20050;-49
2023/03/08 10:28:20;;;;;;;5.30;2.53;;;2.80;99.90;;;;;;5083869;28;20186;-49
2023/03/08 10:30:59;;;;;;;6.18;2.92;;;3.20;99.90;;;;;;5084335;28;20679;-51
2023/03/08 10:33:31;;;;;;;5.00;2.05;;;3.00;99.90;;;;;;5082090;28;20043;-51
2023/03/08 10:36:15;;;;;;;6.32;2.40;;;3.30;99.90;;;;;;5081210;28;20028;-49
2023/03/08 10:38:42;;;;;;;4.68;1.77;;;3.40;99.90;;;;;;5084607;28;20043;-50
2023/03/08 10:41:15;;;;;;;5.63;2.10;;;3.50;99.90;;;;;;5082937;28;20036;-52
2023/03/08 10:43:48;;;;;;;6.38;2.35;;;3.40;99.90;;;;;;5084616;28;20049;-52
2023/03/08 10:46:17;;;;;;;4.38;2.10;;;3.40;99.90;;;;;;5085440;28;20437;-49
2023/03/08 10:48:44;;;;;;;4.82;1.90;;;3.40;99.90;;;;;;5092721;28;20118;-52
2023/03/08 10:51:27;;;;;;;6.00;2.15;;;3.70;99.90;;;;;;5094699;28;20032;-50
2023/03/08 10:53:58;;;;;;;4.93;2.03;;;3.70;99.90;;;;;;5093974;28;20052;-50
2023/03/08 10:56:28;;;;;;;5.85;1.50;;;3.60;99.90;;;;;;5090318;28;20043;-50
2023/03/08 10:58:56;;;;;;;5.53;1.70;;;3.70;99.90;;;;;;5082467;28;20072;-48
2023/03/08 11:01:28;;;;;;;9.00;2.05;;;3.90;99.90;;;;;;5083979;28;20056;-49
2023/03/08 11:03:58;;;;;;;5.78;1.75;;;3.80;99.90;;;;;;5082941;28;20119;-50
2023/03/08 11:06:24;;;;;;;4.15;1.50;;;3.90;99.90;;;;;;5081925;28;20040;-51
2023/03/08 11:08:54;;;;;;;5.50;3.30;;;3.90;99.90;;;;;;5079318;28;20112;-51
2023/03/08 11:11:19;;;;;;;7.97;2.47;;;4.00;99.90;;;;;;5079855;28;20043;-50
2023/03/08 11:13:50;;;;;;;4.72;1.40;;;4.00;99.90;;;;;;5081909;28;20115;-50
2023/03/08 11:16:25;;;;;;;5.18;2.05;;;4.20;99.90;;;;;;5080466;28;20484;-49
2023/03/08 11:19:32;;;;;;;5.85;1.50;;;4.20;99.90;;;;;;5080787;28;20036;-51
2023/03/08 11:22:17;;;;;;;5.97;1.50;;;4.20;99.90;;;;;;5084382;28;20040;-52
2023/03/08 11:25:21;;;;;;;14.10;3.10;;;4.20;99.90;;;;;;5087177;28;20036;-47
2023/03/08 11:27:53;;;;;;;6.65;1.63;;;4.40;99.90;;;;;;5082577;28;20106;-49
2023/03/08 11:30:39;;;;;;;5.53;1.50;;;4.40;99.90;;;;;;5090814;28;20098;-48
2023/03/08 11:33:40;;;;;;;7.90;1.90;;;4.50;99.90;;;;;;5093785;28;20388;-53
2023/03/08 11:36:14;;;;;;;4.07;1.33;;;4.50;99.90;;;;;;5087999;28;20040;-53
2023/03/08 11:38:40;;;;;;;3.80;1.48;;;4.60;99.90;;;;;;5083361;28;20037;-49
2023/03/08 11:41:30;;;;;;;7.55;2.10;;;4.60;99.90;;;;;;5087739;28;20391;-49
2023/03/08 11:44:08;;;;;;;7.60;1.60;;;4.80;99.90;;;;;;5093702;28;20044;-53
2023/03/08 11:46:55;;;;;;;6.68;1.50;;;4.80;99.90;;;;;;5093475;28;20054;-49
2023/03/08 11:50:04;;;;;;;5.90;2.22;;;4.90;99.90;;;;;;5093131;28;20462;-48
2023/03/08 11:52:36;;;;;;;7.40;2.10;;;4.90;99.90;;;;;;5084592;28;20064;-49
2023/03/08 11:55:10;;;;;;;11.03;2.13;;;4.90;99.90;;;;;;5087184;28;20124;-49
2023/03/08 11:57:45;;;;;;;6.95;1.90;;;4.90;99.90;;;;;;5093295;28;20036;-49
2023/03/08 12:00:22;;;;;;;6.85;2.40;;;4.90;99.90;;;;;;5092979;28;20414;-49
2023/03/08 12:02:49;;;;;;;8.25;3.17;;;4.80;99.90;;;;;;5093196;28;20052;-48
2023/03/08 12:05:39;;;;;;;7.10;2.20;;;4.90;99.90;;;;;;5093056;28;20067;-48
2023/03/08 12:08:12;;;;;;;5.18;2.17;;;4.90;99.90;;;;;;5091847;28;20044;-49
2023/03/08 12:10:55;;;;;;;7.55;2.40;;;5.00;99.90;;;;;;5092903;28;20044;-49
2023/03/08 12:13:38;;;;;;;;;;;5.00;99.90;;;;;;5093521;28;20051;-52
2023/03/08 12:16:09;;;;;;;;;;;5.10;99.90;;;;;;5093291;28;20002;-52
2023/03/08 12:18:44;;;;;;;4.75;1.75;;;5.40;99.90;;;;;;5093114;28;19976;-49
2023/03/08 12:21:37;;;;;;;5.38;1.85;;;5.10;99.90;;;;;;5092728;28;20032;-48
2023/03/08 12:24:15;;;;;;;5.78;1.65;;;5.20;99.90;;;;;;5092874;28;20393;-48
2023/03/08 12:26:47;;;;;;;6.97;1.15;;;5.00;99.90;;;;;;5092582;28;20068;-52
2023/03/08 12:29:40;;;;;;;3.60;1.33;;;5.00;99.90;;;;;;5091491;28;20165;-51
2023/03/08 12:32:09;;;;;;;6.50;2.08;;;5.20;99.90;;;;;;5074055;28;20060;-50
2023/03/08 12:34:36;;;;;;;5.38;1.25;;;5.20;99.90;;;;;;5092615;28;20040;-49
2023/03/08 12:37:03;;;;;;;5.43;1.17;;;5.20;99.90;;;;;;5074139;28;20043;-49
2023/03/08 12:39:32;;;;;;;2.92;0.93;;;5.10;99.90;;;;;;5092750;28;20503;-51
2023/03/08 12:42:09;;;;;;;3.13;0.88;;;5.10;99.90;;;;;;5092184;28;20040;-52
2023/03/08 12:44:37;;;;;;;6.03;1.27;;;5.10;99.90;;;;;;5092351;28;20097;-50
2023/03/08 12:47:21;;;;;;;4.25;1.33;;;5.20;99.90;;;;;;5092410;28;20054;-49
2023/03/08 12:49:55;;;;;;;7.40;1.38;;;5.10;99.90;;;;;;5092155;28;20045;-51
2023/03/08 12:52:20;;;;;;;2.33;1.10;;;5.20;99.90;;;;;;5073962;28;20043;-52
2023/03/08 12:54:55;;;;;;;3.50;1.23;;;5.10;99.90;;;;;;5092516;28;20032;-52
2023/03/08 12:57:23;;;;;;;6.22;1.38;;;5.30;99.90;;;;;;5090575;28;20075;-53
2023/03/08 12:59:57;;;;;;;4.40;1.20;;;5.30;99.90;;;;;;5092177;28;20051;-49
2023/03/08 13:02:29;;;;;;;5.03;1.40;;;5.30;99.90;;;;;;5091889;28;20132;-50
2023/03/08 13:05:22;;;;;;;4.32;1.55;;;5.10;99.90;;;;;;5091691;28;20043;-49